sensor_id;sensor_type;location;lat;lon;timestamp;pressure;altitude;pressure_sealevel;temperature;humidity
42451;BME280;28080;51.138;17.170;2024-03-22T00:04:04;100447.27;;;10.28;87.46
42451;BME280;28080;51.138;17.170;2024-03-22T00:14:29;100439.46;;;10.18;86.97
42451;BME280;28080;51.138;17.170;2024-03-22T00:24:37;100434.05;;;10.12;86.86
42451;BME280;28080;51.138;17.170;2024-03-22T00:35:02;100429.13;;;10.06;86.61
42451;BME280;28080;51.138;17.170;2024-03-22T00:45:27;100437.45;;;9.98;86.25
42451;BME280;28080;51.138;17.170;2024-03-22T00:55:53;100441.91;;;9.90;85.19
42451;BME280;28080;51.138;17.170;2024-03-22T01:06:19;100442.45;;;9.77;82.04
42451;BME280;28080;51.138;17.170;2024-03-22T01:16:46;100440.09;;;9.66;80.97
42451;BME280;28080;51.138;17.170;2024-03-22T01:27:12;100433.73;;;9.55;79.86
42451;BME280;28080;51.138;17.170;2024-03-22T01:37:37;100428.60;;;9.43;79.58
42451;BME280;28080;51.138;17.170;2024-03-22T01:48:02;100419.42;;;9.35;79.41
42451;BME280;28080;51.138;17.170;2024-03-22T01:58:10;100409.62;;;9.26;79.47
42451;BME280;28080;51.138;17.170;2024-03-22T02:08:26;100406.25;;;9.14;79.81
42451;BME280;28080;51.138;17.170;2024-03-22T02:18:41;100402.92;;;9.05;80.53
42451;BME280;28080;51.138;17.170;2024-03-22T02:29:07;100404.75;;;8.93;81.86
42451;BME280;28080;51.138;17.170;2024-03-22T02:39:32;100405.84;;;8.82;83.06
42451;BME280;28080;51.138;17.170;2024-03-22T02:49:57;100398.79;;;8.74;84.22
42451;BME280;28080;51.138;17.170;2024-03-22T03:00:22;100396.93;;;8.66;85.27
42451;BME280;28080;51.138;17.170;2024-03-22T03:10:47;100392.86;;;8.61;86.03
42451;BME280;28080;51.138;17.170;2024-03-22T03:21:12;100388.80;;;8.55;87.53
42451;BME280;28080;51.138;17.170;2024-03-22T03:31:37;100379.70;;;8.45;89.50
42451;BME280;28080;51.138;17.170;2024-03-22T03:42:02;100378.96;;;8.39;90.96
42451;BME280;28080;51.138;17.170;2024-03-22T03:52:27;100377.80;;;8.34;92.22
42451;BME280;28080;51.138;17.170;2024-03-22T04:02:52;100375.15;;;8.28;93.92
42451;BME280;28080;51.138;17.170;2024-03-22T04:13:17;100375.46;;;8.25;94.65
42451;BME280;28080;51.138;17.170;2024-03-22T04:23:42;100377.91;;;8.25;94.90
42451;BME280;28080;51.138;17.170;2024-03-22T04:34:07;100370.77;;;8.25;95.21
42451;BME280;28080;51.138;17.170;2024-03-22T04:44:14;100366.02;;;8.25;95.25
42451;BME280;28080;51.138;17.170;2024-03-22T04:54:39;100379.95;;;8.25;95.40
42451;BME280;28080;51.138;17.170;2024-03-22T05:05:05;100384.05;;;8.24;95.55
42451;BME280;28080;51.138;17.170;2024-03-22T05:15:21;100380.52;;;8.22;95.48
42451;BME280;28080;51.138;17.170;2024-03-22T05:25:46;100374.88;;;8.19;95.24
42451;BME280;28080;51.138;17.170;2024-03-22T05:35:59;100371.80;;;8.18;94.94
42451;BME280;28080;51.138;17.170;2024-03-22T05:46:14;100385.34;;;8.16;94.02
42451;BME280;28080;51.138;17.170;2024-03-22T05:56:39;100388.35;;;8.11;92.99
42451;BME280;28080;51.138;17.170;2024-03-22T06:07:04;100387.36;;;8.07;92.82
42451;BME280;28080;51.138;17.170;2024-03-22T06:17:29;100383.70;;;8.06;92.75
42451;BME280;28080;51.138;17.170;2024-03-22T06:27:54;100382.48;;;8.07;91.95
42451;BME280;28080;51.138;17.170;2024-03-22T06:38:20;100381.89;;;8.08;90.74
42451;BME280;28080;51.138;17.170;2024-03-22T06:48:45;100380.30;;;8.12;89.72
42451;BME280;28080;51.138;17.170;2024-03-22T06:59:10;100374.14;;;8.20;88.88
42451;BME280;28080;51.138;17.170;2024-03-22T07:09:35;100363.64;;;8.28;87.69
42451;BME280;28080;51.138;17.170;2024-03-22T07:20:00;100355.09;;;8.35;85.41
42451;BME280;28080;51.138;17.170;2024-03-22T07:30:25;100356.93;;;8.44;84.75
42451;BME280;28080;51.138;17.170;2024-03-22T07:40:50;100363.72;;;8.51;83.22
42451;BME280;28080;51.138;17.170;2024-03-22T07:51:15;100359.24;;;8.60;83.69
42451;BME280;28080;51.138;17.170;2024-03-22T08:01:40;100349.19;;;8.69;83.42
42451;BME280;28080;51.138;17.170;2024-03-22T08:12:05;100328.93;;;8.79;82.32
42451;BME280;28080;51.138;17.170;2024-03-22T08:22:31;100316.65;;;8.90;81.80
42451;BME280;28080;51.138;17.170;2024-03-22T08:32:57;100303.65;;;9.08;81.99
42451;BME280;28080;51.138;17.170;2024-03-22T08:43:12;100293.45;;;9.38;80.50
42451;BME280;28080;51.138;17.170;2024-03-22T08:53:38;100282.48;;;9.55;78.87
42451;BME280;28080;51.138;17.170;2024-03-22T09:04:03;100262.59;;;9.70;77.96
42451;BME280;28080;51.138;17.170;2024-03-22T09:14:28;100247.09;;;9.90;77.40
42451;BME280;28080;51.138;17.170;2024-03-22T09:24:36;100243.02;;;10.35;76.71
42451;BME280;28080;51.138;17.170;2024-03-22T09:35:01;100242.84;;;10.58;75.03
42451;BME280;28080;51.138;17.170;2024-03-22T09:45:27;100240.74;;;10.72;73.89
42451;BME280;28080;51.138;17.170;2024-03-22T09:55:52;100237.16;;;10.85;73.20
42451;BME280;28080;51.138;17.170;2024-03-22T10:06:21;100228.73;;;10.99;72.46
42451;BME280;28080;51.138;17.170;2024-03-22T10:16:46;100219.45;;;11.07;72.49
42451;BME280;28080;51.138;17.170;2024-03-22T10:27:11;100204.48;;;11.14;71.44
42451;BME280;28080;51.138;17.170;2024-03-22T10:37:37;100201.13;;;11.25;70.87
42451;BME280;28080;51.138;17.170;2024-03-22T10:48:04;100192.89;;;11.36;70.96
42451;BME280;28080;51.138;17.170;2024-03-22T10:58:51;100175.90;;;11.56;70.19
42451;BME280;28080;51.138;17.170;2024-03-22T11:09:19;100165.70;;;11.75;66.87
42451;BME280;28080;51.138;17.170;2024-03-22T11:19:46;100149.83;;;11.98;65.14
42451;BME280;28080;51.138;17.170;2024-03-22T11:30:11;100127.23;;;12.18;64.16
42451;BME280;28080;51.138;17.170;2024-03-22T11:40:37;100101.33;;;12.41;63.57
42451;BME280;28080;51.138;17.170;2024-03-22T11:51:02;100084.53;;;12.60;62.70
42451;BME280;28080;51.138;17.170;2024-03-22T12:01:24;100061.27;;;12.71;61.78
42451;BME280;28080;51.138;17.170;2024-03-22T12:11:49;100045.86;;;12.80;59.53
42451;BME280;28080;51.138;17.170;2024-03-22T12:21:54;100035.53;;;12.86;58.03
42451;BME280;28080;51.138;17.170;2024-03-22T12:32:19;100020.41;;;12.94;59.28
42451;BME280;28080;51.138;17.170;2024-03-22T12:42:45;100004.00;;;13.02;60.01
42451;BME280;28080;51.138;17.170;2024-03-22T12:53:11;99995.52;;;13.05;59.93
42451;BME280;28080;51.138;17.170;2024-03-22T13:03:37;99982.64;;;13.01;59.58
42451;BME280;28080;51.138;17.170;2024-03-22T13:14:03;99970.40;;;13.01;58.94
42451;BME280;28080;51.138;17.170;2024-03-22T13:24:28;99957.79;;;13.02;59.63
42451;BME280;28080;51.138;17.170;2024-03-22T13:34:53;99938.95;;;13.10;60.07
42451;BME280;28080;51.138;17.170;2024-03-22T13:45:19;99916.56;;;13.29;59.51
42451;BME280;28080;51.138;17.170;2024-03-22T13:56:04;99901.17;;;13.53;58.16
42451;BME280;28080;51.138;17.170;2024-03-22T14:06:29;99891.64;;;13.62;56.61
42451;BME280;28080;51.138;17.170;2024-03-22T14:16:37;99880.75;;;13.67;56.74
42451;BME280;28080;51.138;17.170;2024-03-22T14:27:22;99864.14;;;13.70;56.92
42451;BME280;28080;51.138;17.170;2024-03-22T14:38:00;99853.80;;;13.72;56.45
42451;BME280;28080;51.138;17.170;2024-03-22T14:48:24;99834.36;;;13.67;56.60
42451;BME280;28080;51.138;17.170;2024-03-22T14:58:50;99819.23;;;13.60;56.26
42451;BME280;28080;51.138;17.170;2024-03-22T15:09:16;99800.91;;;13.61;57.41
42451;BME280;28080;51.138;17.170;2024-03-22T15:19:41;99785.61;;;13.61;56.84
42451;BME280;28080;51.138;17.170;2024-03-22T15:30:09;99772.39;;;13.62;57.47
42451;BME280;28080;51.138;17.170;2024-03-22T15:40:35;99758.21;;;13.55;57.28
42451;BME280;28080;51.138;17.170;2024-03-22T16:01:15;99739.36;;;13.32;58.26
42451;BME280;28080;51.138;17.170;2024-03-22T16:11:41;99731.54;;;13.20;59.11
42451;BME280;28080;51.138;17.170;2024-03-22T16:22:06;99723.92;;;13.07;60.07
42451;BME280;28080;51.138;17.170;2024-03-22T16:32:33;99716.77;;;12.98;60.85
42451;BME280;28080;51.138;17.170;2024-03-22T16:42:58;99715.93;;;12.82;62.16
42451;BME280;28080;51.138;17.170;2024-03-22T16:53:20;99716.21;;;12.68;63.25
42451;BME280;28080;51.138;17.170;2024-03-22T17:03:45;99715.80;;;12.58;63.89
42451;BME280;28080;51.138;17.170;2024-03-22T17:13:59;99709.38;;;12.48;64.29
42451;BME280;28080;51.138;17.170;2024-03-22T17:24:24;99706.13;;;12.38;64.60
42451;BME280;28080;51.138;17.170;2024-03-22T17:34:51;99696.76;;;12.27;64.75
42451;BME280;28080;51.138;17.170;2024-03-22T17:45:06;99690.95;;;12.16;64.59
42451;BME280;28080;51.138;17.170;2024-03-22T17:55:14;99682.53;;;12.10;64.59
42451;BME280;28080;51.138;17.170;2024-03-22T18:05:39;99677.61;;;12.06;64.01
42451;BME280;28080;51.138;17.170;2024-03-22T18:16:04;99679.06;;;12.00;63.97
42451;BME280;28080;51.138;17.170;2024-03-22T18:26:29;99670.54;;;11.95;63.99
42451;BME280;28080;51.138;17.170;2024-03-22T18:36:54;99666.76;;;11.89;63.84
42451;BME280;28080;51.138;17.170;2024-03-22T18:47:19;99661.50;;;11.85;63.89
42451;BME280;28080;51.138;17.170;2024-03-22T18:57:35;99655.94;;;11.79;64.12
42451;BME280;28080;51.138;17.170;2024-03-22T19:07:53;99648.41;;;11.75;64.12
42451;BME280;28080;51.138;17.170;2024-03-22T19:18:18;99644.47;;;11.69;64.35
42451;BME280;28080;51.138;17.170;2024-03-22T19:28:33;99644.49;;;11.64;64.59
42451;BME280;28080;51.138;17.170;2024-03-22T19:39:02;99633.80;;;11.59;65.74
42451;BME280;28080;51.138;17.170;2024-03-22T19:49:20;99624.77;;;11.52;66.87
42451;BME280;28080;51.138;17.170;2024-03-22T19:59:46;99619.59;;;11.46;66.88
42451;BME280;28080;51.138;17.170;2024-03-22T20:10:11;99617.86;;;11.41;67.47
42451;BME280;28080;51.138;17.170;2024-03-22T20:20:36;99611.07;;;11.36;68.36
42451;BME280;28080;51.138;17.170;2024-03-22T20:31:01;99607.79;;;11.30;68.63
